<?xml version="1.0" encoding="UTF-8" standalone="no" ?>
<gpx xmlns="http://www.topografix.com/GPX/1/1" xmlns:xsi="http://www.w3.org/2001/XMLSchema-instance" xsi:schemaLocation="http://www.topografix.com/GPX/1/1 http://www.topografix.com/GPX/1/1/gpx.xsd" version="1.1" creator="VisuGPX - https://www.visugpx.com">
  <metadata>
    <name>180825 - Periers-Colleville</name>
    <desc><![CDATA[Circuit en handbike du 25 août 2018]]></desc>
  </metadata>
  <trk>
    <name><![CDATA[180825 - Periers-Colleville]]></name>
    <trkseg>
      <trkpt lat="49.32665" lon="-0.38078">
        <ele>11.67</ele>
        <time>2018-08-25T09:18:42Z</time>
      </trkpt>
      <trkpt lat="49.32638" lon="-0.38094">
        <ele>11.67</ele>
        <time>2018-08-25T09:19:01Z</time>
      </trkpt>
      <trkpt lat="49.32558" lon="-0.38132">
        <ele>11.19</ele>
        <time>2018-08-25T09:19:53Z</time>
      </trkpt>
      <trkpt lat="49.32528" lon="-0.38145">
        <ele>11.19</ele>
        <time>2018-08-25T09:20:46Z</time>
      </trkpt>
      <trkpt lat="49.32453" lon="-0.38186">
        <ele>11.67</ele>
        <time>2018-08-25T09:21:13Z</time>
      </trkpt>
      <trkpt lat="49.32444" lon="-0.38175">
        <ele>11.67</ele>
        <time>2018-08-25T09:21:17Z</time>
      </trkpt>
      <trkpt lat="49.32419" lon="-0.38125">
        <ele>11.67</ele>
        <time>2018-08-25T09:21:26Z</time>
      </trkpt>
      <trkpt lat="49.32293" lon="-0.37861">
        <ele>12.15</ele>
        <time>2018-08-25T09:22:13Z</time>
      </trkpt>
      <trkpt lat="49.32225" lon="-0.37725">
        <ele>11.67</ele>
        <time>2018-08-25T09:22:38Z</time>
      </trkpt>
      <trkpt lat="49.32179" lon="-0.37642">
        <ele>9.75</ele>
        <time>2018-08-25T09:22:54Z</time>
      </trkpt>
      <trkpt lat="49.32136" lon="-0.37582">
        <ele>9.27</ele>
        <time>2018-08-25T09:23:10Z</time>
      </trkpt>
      <trkpt lat="49.32117" lon="-0.37596">
        <ele>8.79</ele>
        <time>2018-08-25T09:23:18Z</time>
      </trkpt>
      <trkpt lat="49.32035" lon="-0.37632">
        <ele>8.79</ele>
        <time>2018-08-25T09:23:45Z</time>
      </trkpt>
      <trkpt lat="49.31971" lon="-0.37768">
        <ele>10.23</ele>
        <time>2018-08-25T09:24:11Z</time>
      </trkpt>
      <trkpt lat="49.31927" lon="-0.37979">
        <ele>12.63</ele>
        <time>2018-08-25T09:24:43Z</time>
      </trkpt>
      <trkpt lat="49.31878" lon="-0.38123">
        <ele>12.63</ele>
        <time>2018-08-25T09:25:06Z</time>
      </trkpt>
      <trkpt lat="49.31819" lon="-0.38252">
        <ele>13.12</ele>
        <time>2018-08-25T09:25:28Z</time>
      </trkpt>
      <trkpt lat="49.31766" lon="-0.38374">
        <ele>13.6</ele>
        <time>2018-08-25T09:25:50Z</time>
      </trkpt>
      <trkpt lat="49.31735" lon="-0.38497">
        <ele>13.6</ele>
        <time>2018-08-25T09:26:10Z</time>
      </trkpt>
      <trkpt lat="49.31682" lon="-0.38634">
        <ele>13.6</ele>
        <time>2018-08-25T09:26:31Z</time>
      </trkpt>
      <trkpt lat="49.31639" lon="-0.38737">
        <ele>15.04</ele>
        <time>2018-08-25T09:26:48Z</time>
      </trkpt>
      <trkpt lat="49.3158" lon="-0.38869">
        <ele>15.04</ele>
        <time>2018-08-25T09:27:07Z</time>
      </trkpt>
      <trkpt lat="49.31528" lon="-0.39033">
        <ele>16.48</ele>
        <time>2018-08-25T09:27:29Z</time>
      </trkpt>
      <trkpt lat="49.31498" lon="-0.39204">
        <ele>18.4</ele>
        <time>2018-08-25T09:27:51Z</time>
      </trkpt>
      <trkpt lat="49.31464" lon="-0.3931">
        <ele>21.29</ele>
        <time>2018-08-25T09:28:05Z</time>
      </trkpt>
      <trkpt lat="49.31438" lon="-0.39384">
        <ele>23.69</ele>
        <time>2018-08-25T09:28:15Z</time>
      </trkpt>
      <trkpt lat="49.31392" lon="-0.39547">
        <ele>27.05</ele>
        <time>2018-08-25T09:28:36Z</time>
      </trkpt>
      <trkpt lat="49.3133" lon="-0.39745">
        <ele>28.02</ele>
        <time>2018-08-25T09:29:02Z</time>
      </trkpt>
      <trkpt lat="49.31278" lon="-0.39879">
        <ele>29.94</ele>
        <time>2018-08-25T09:29:20Z</time>
      </trkpt>
      <trkpt lat="49.31227" lon="-0.40001">
        <ele>29.46</ele>
        <time>2018-08-25T09:29:38Z</time>
      </trkpt>
      <trkpt lat="49.31168" lon="-0.40111">
        <ele>31.86</ele>
        <time>2018-08-25T09:29:55Z</time>
      </trkpt>
      <trkpt lat="49.31097" lon="-0.40249">
        <ele>33.3</ele>
        <time>2018-08-25T09:30:15Z</time>
      </trkpt>
      <trkpt lat="49.31043" lon="-0.40369">
        <ele>34.74</ele>
        <time>2018-08-25T09:30:33Z</time>
      </trkpt>
      <trkpt lat="49.31" lon="-0.40471">
        <ele>36.19</ele>
        <time>2018-08-25T09:30:52Z</time>
      </trkpt>
      <trkpt lat="49.30991" lon="-0.40497">
        <ele>34.74</ele>
        <time>2018-08-25T09:31:09Z</time>
      </trkpt>
      <trkpt lat="49.30973" lon="-0.40583">
        <ele>36.19</ele>
        <time>2018-08-25T09:32:27Z</time>
      </trkpt>
      <trkpt lat="49.30929" lon="-0.40638">
        <ele>35.23</ele>
        <time>2018-08-25T09:32:39Z</time>
      </trkpt>
      <trkpt lat="49.30906" lon="-0.40653">
        <ele>36.67</ele>
        <time>2018-08-25T09:32:50Z</time>
      </trkpt>
      <trkpt lat="49.30824" lon="-0.40682">
        <ele>38.11</ele>
        <time>2018-08-25T09:33:06Z</time>
      </trkpt>
      <trkpt lat="49.30741" lon="-0.40717">
        <ele>39.07</ele>
        <time>2018-08-25T09:33:23Z</time>
      </trkpt>
      <trkpt lat="49.30731" lon="-0.40722">
        <ele>38.59</ele>
        <time>2018-08-25T09:33:26Z</time>
      </trkpt>
      <trkpt lat="49.30711" lon="-0.40739">
        <ele>40.51</ele>
        <time>2018-08-25T09:33:35Z</time>
      </trkpt>
      <trkpt lat="49.30677" lon="-0.40775">
        <ele>40.51</ele>
        <time>2018-08-25T09:33:45Z</time>
      </trkpt>
      <trkpt lat="49.30647" lon="-0.40789">
        <ele>40.51</ele>
        <time>2018-08-25T09:33:50Z</time>
      </trkpt>
      <trkpt lat="49.30643" lon="-0.40793">
        <ele>40.51</ele>
        <time>2018-08-25T09:33:51Z</time>
      </trkpt>
      <trkpt lat="49.30634" lon="-0.40802">
        <ele>40.03</ele>
        <time>2018-08-25T09:33:53Z</time>
      </trkpt>
      <trkpt lat="49.30617" lon="-0.40835">
        <ele>40.51</ele>
        <time>2018-08-25T09:33:59Z</time>
      </trkpt>
      <trkpt lat="49.30608" lon="-0.40875">
        <ele>40.51</ele>
        <time>2018-08-25T09:34:06Z</time>
      </trkpt>
      <trkpt lat="49.30594" lon="-0.40887">
        <ele>40.51</ele>
        <time>2018-08-25T09:34:10Z</time>
      </trkpt>
      <trkpt lat="49.30497" lon="-0.40909">
        <ele>40.51</ele>
        <time>2018-08-25T09:34:28Z</time>
      </trkpt>
      <trkpt lat="49.30423" lon="-0.40921">
        <ele>39.55</ele>
        <time>2018-08-25T09:34:47Z</time>
      </trkpt>
      <trkpt lat="49.30422" lon="-0.40916">
        <ele>39.55</ele>
        <time>2018-08-25T09:35:00Z</time>
      </trkpt>
      <trkpt lat="49.30422" lon="-0.40889">
        <ele>39.07</ele>
        <time>2018-08-25T09:35:05Z</time>
      </trkpt>
      <trkpt lat="49.30424" lon="-0.40785">
        <ele>38.59</ele>
        <time>2018-08-25T09:35:16Z</time>
      </trkpt>
      <trkpt lat="49.30414" lon="-0.40758">
        <ele>38.59</ele>
        <time>2018-08-25T09:35:20Z</time>
      </trkpt>
      <trkpt lat="49.30333" lon="-0.4066">
        <ele>38.59</ele>
        <time>2018-08-25T09:35:44Z</time>
      </trkpt>
      <trkpt lat="49.30267" lon="-0.40584">
        <ele>39.07</ele>
        <time>2018-08-25T09:36:05Z</time>
      </trkpt>
      <trkpt lat="49.30188" lon="-0.40496">
        <ele>39.07</ele>
        <time>2018-08-25T09:36:29Z</time>
      </trkpt>
      <trkpt lat="49.30151" lon="-0.40458">
        <ele>40.03</ele>
        <time>2018-08-25T09:36:40Z</time>
      </trkpt>
      <trkpt lat="49.30084" lon="-0.40389">
        <ele>41.95</ele>
        <time>2018-08-25T09:36:59Z</time>
      </trkpt>
      <trkpt lat="49.30019" lon="-0.40358">
        <ele>43.88</ele>
        <time>2018-08-25T09:37:18Z</time>
      </trkpt>
      <trkpt lat="49.30011" lon="-0.40329">
        <ele>44.36</ele>
        <time>2018-08-25T09:37:23Z</time>
      </trkpt>
      <trkpt lat="49.30012" lon="-0.40223">
        <ele>42.92</ele>
        <time>2018-08-25T09:37:37Z</time>
      </trkpt>
      <trkpt lat="49.29976" lon="-0.40093">
        <ele>42.92</ele>
        <time>2018-08-25T09:37:55Z</time>
      </trkpt>
      <trkpt lat="49.2993" lon="-0.39957">
        <ele>41.95</ele>
        <time>2018-08-25T09:38:14Z</time>
      </trkpt>
      <trkpt lat="49.29852" lon="-0.39756">
        <ele>40.51</ele>
        <time>2018-08-25T09:38:41Z</time>
      </trkpt>
      <trkpt lat="49.29789" lon="-0.39592">
        <ele>39.55</ele>
        <time>2018-08-25T09:39:03Z</time>
      </trkpt>
      <trkpt lat="49.29742" lon="-0.39451">
        <ele>40.03</ele>
        <time>2018-08-25T09:39:21Z</time>
      </trkpt>
      <trkpt lat="49.29698" lon="-0.39321">
        <ele>40.03</ele>
        <time>2018-08-25T09:39:39Z</time>
      </trkpt>
      <trkpt lat="49.29656" lon="-0.39227">
        <ele>39.07</ele>
        <time>2018-08-25T09:39:55Z</time>
      </trkpt>
      <trkpt lat="49.29608" lon="-0.39133">
        <ele>38.59</ele>
        <time>2018-08-25T09:40:10Z</time>
      </trkpt>
      <trkpt lat="49.29566" lon="-0.39051">
        <ele>37.63</ele>
        <time>2018-08-25T09:40:29Z</time>
      </trkpt>
      <trkpt lat="49.29561" lon="-0.39048">
        <ele>37.63</ele>
        <time>2018-08-25T09:40:52Z</time>
      </trkpt>
      <trkpt lat="49.29534" lon="-0.39078">
        <ele>38.59</ele>
        <time>2018-08-25T09:41:06Z</time>
      </trkpt>
      <trkpt lat="49.295" lon="-0.39125">
        <ele>39.55</ele>
        <time>2018-08-25T09:41:19Z</time>
      </trkpt>
      <trkpt lat="49.29425" lon="-0.39227">
        <ele>40.03</ele>
        <time>2018-08-25T09:41:39Z</time>
      </trkpt>
      <trkpt lat="49.29353" lon="-0.39318">
        <ele>39.55</ele>
        <time>2018-08-25T09:41:59Z</time>
      </trkpt>
      <trkpt lat="49.2929" lon="-0.39383">
        <ele>38.11</ele>
        <time>2018-08-25T09:42:15Z</time>
      </trkpt>
      <trkpt lat="49.29276" lon="-0.39402">
        <ele>38.11</ele>
        <time>2018-08-25T09:42:19Z</time>
      </trkpt>
      <trkpt lat="49.29258" lon="-0.39408">
        <ele>36.19</ele>
        <time>2018-08-25T09:42:24Z</time>
      </trkpt>
      <trkpt lat="49.29248" lon="-0.39382">
        <ele>35.71</ele>
        <time>2018-08-25T09:42:28Z</time>
      </trkpt>
      <trkpt lat="49.29187" lon="-0.39276">
        <ele>33.78</ele>
        <time>2018-08-25T09:42:48Z</time>
      </trkpt>
      <trkpt lat="49.29166" lon="-0.39238">
        <ele>34.26</ele>
        <time>2018-08-25T09:43:00Z</time>
      </trkpt>
      <trkpt lat="49.2911" lon="-0.39122">
        <ele>33.78</ele>
        <time>2018-08-25T09:43:21Z</time>
      </trkpt>
      <trkpt lat="49.29107" lon="-0.39106">
        <ele>33.3</ele>
        <time>2018-08-25T09:43:24Z</time>
      </trkpt>
      <trkpt lat="49.29026" lon="-0.38989">
        <ele>32.82</ele>
        <time>2018-08-25T09:43:48Z</time>
      </trkpt>
      <trkpt lat="49.28981" lon="-0.38931">
        <ele>32.34</ele>
        <time>2018-08-25T09:44:01Z</time>
      </trkpt>
      <trkpt lat="49.28939" lon="-0.38809">
        <ele>30.9</ele>
        <time>2018-08-25T09:44:19Z</time>
      </trkpt>
      <trkpt lat="49.28936" lon="-0.38682">
        <ele>30.9</ele>
        <time>2018-08-25T09:44:37Z</time>
      </trkpt>
      <trkpt lat="49.28939" lon="-0.38657">
        <ele>30.9</ele>
        <time>2018-08-25T09:44:41Z</time>
      </trkpt>
      <trkpt lat="49.28954" lon="-0.38577">
        <ele>31.86</ele>
        <time>2018-08-25T09:44:54Z</time>
      </trkpt>
      <trkpt lat="49.28951" lon="-0.38518">
        <ele>33.3</ele>
        <time>2018-08-25T09:45:02Z</time>
      </trkpt>
      <trkpt lat="49.28926" lon="-0.38429">
        <ele>34.74</ele>
        <time>2018-08-25T09:45:16Z</time>
      </trkpt>
      <trkpt lat="49.28903" lon="-0.38394">
        <ele>36.19</ele>
        <time>2018-08-25T09:45:23Z</time>
      </trkpt>
      <trkpt lat="49.28853" lon="-0.38299">
        <ele>39.07</ele>
        <time>2018-08-25T09:45:41Z</time>
      </trkpt>
      <trkpt lat="49.28819" lon="-0.38214">
        <ele>40.99</ele>
        <time>2018-08-25T09:45:54Z</time>
      </trkpt>
      <trkpt lat="49.28813" lon="-0.38203">
        <ele>40.99</ele>
        <time>2018-08-25T09:45:56Z</time>
      </trkpt>
      <trkpt lat="49.28796" lon="-0.38189">
        <ele>41.95</ele>
        <time>2018-08-25T09:46:00Z</time>
      </trkpt>
      <trkpt lat="49.28516" lon="-0.38171">
        <ele>52.05</ele>
        <time>2018-08-25T09:46:56Z</time>
      </trkpt>
      <trkpt lat="49.28433" lon="-0.38071">
        <ele>53.97</ele>
        <time>2018-08-25T09:47:16Z</time>
      </trkpt>
      <trkpt lat="49.28378" lon="-0.38068">
        <ele>55.89</ele>
        <time>2018-08-25T09:47:34Z</time>
      </trkpt>
      <trkpt lat="49.28274" lon="-0.381">
        <ele>56.86</ele>
        <time>2018-08-25T09:47:54Z</time>
      </trkpt>
      <trkpt lat="49.28205" lon="-0.3809">
        <ele>56.37</ele>
        <time>2018-08-25T09:48:06Z</time>
      </trkpt>
      <trkpt lat="49.28041" lon="-0.38042">
        <ele>57.34</ele>
        <time>2018-08-25T09:48:32Z</time>
      </trkpt>
      <trkpt lat="49.27576" lon="-0.37922">
        <ele>52.05</ele>
        <time>2018-08-25T09:49:53Z</time>
      </trkpt>
      <trkpt lat="49.27569" lon="-0.37923">
        <ele>52.05</ele>
        <time>2018-08-25T09:49:58Z</time>
      </trkpt>
      <trkpt lat="49.27567" lon="-0.37909">
        <ele>51.57</ele>
        <time>2018-08-25T09:50:03Z</time>
      </trkpt>
      <trkpt lat="49.27557" lon="-0.37846">
        <ele>52.05</ele>
        <time>2018-08-25T09:50:15Z</time>
      </trkpt>
      <trkpt lat="49.27556" lon="-0.3784">
        <ele>52.05</ele>
        <time>2018-08-25T09:50:16Z</time>
      </trkpt>
      <trkpt lat="49.27529" lon="-0.37801">
        <ele>52.05</ele>
        <time>2018-08-25T09:50:30Z</time>
      </trkpt>
      <trkpt lat="49.275" lon="-0.37799">
        <ele>51.09</ele>
        <time>2018-08-25T09:50:38Z</time>
      </trkpt>
      <trkpt lat="49.27497" lon="-0.37752">
        <ele>53.49</ele>
        <time>2018-08-25T09:50:45Z</time>
      </trkpt>
      <trkpt lat="49.27519" lon="-0.3762">
        <ele>55.89</ele>
        <time>2018-08-25T09:51:05Z</time>
      </trkpt>
      <trkpt lat="49.27539" lon="-0.37498">
        <ele>57.82</ele>
        <time>2018-08-25T09:51:24Z</time>
      </trkpt>
      <trkpt lat="49.27564" lon="-0.37351">
        <ele>60.22</ele>
        <time>2018-08-25T09:51:43Z</time>
      </trkpt>
      <trkpt lat="49.27582" lon="-0.37209">
        <ele>61.18</ele>
        <time>2018-08-25T09:52:00Z</time>
      </trkpt>
      <trkpt lat="49.27602" lon="-0.37023">
        <ele>62.14</ele>
        <time>2018-08-25T09:52:20Z</time>
      </trkpt>
      <trkpt lat="49.27625" lon="-0.36853">
        <ele>63.58</ele>
        <time>2018-08-25T09:52:39Z</time>
      </trkpt>
      <trkpt lat="49.27653" lon="-0.36655">
        <ele>63.1</ele>
        <time>2018-08-25T09:53:03Z</time>
      </trkpt>
      <trkpt lat="49.27685" lon="-0.36465">
        <ele>61.18</ele>
        <time>2018-08-25T09:53:27Z</time>
      </trkpt>
      <trkpt lat="49.27716" lon="-0.36341">
        <ele>58.3</ele>
        <time>2018-08-25T09:53:42Z</time>
      </trkpt>
      <trkpt lat="49.27763" lon="-0.36149">
        <ele>54.45</ele>
        <time>2018-08-25T09:54:06Z</time>
      </trkpt>
      <trkpt lat="49.27817" lon="-0.35964">
        <ele>51.57</ele>
        <time>2018-08-25T09:54:38Z</time>
      </trkpt>
      <trkpt lat="49.27816" lon="-0.35884">
        <ele>50.13</ele>
        <time>2018-08-25T09:54:51Z</time>
      </trkpt>
      <trkpt lat="49.2783" lon="-0.35856">
        <ele>49.16</ele>
        <time>2018-08-25T09:54:57Z</time>
      </trkpt>
      <trkpt lat="49.2793" lon="-0.357">
        <ele>43.4</ele>
        <time>2018-08-25T09:55:35Z</time>
      </trkpt>
      <trkpt lat="49.27929" lon="-0.35673">
        <ele>42.92</ele>
        <time>2018-08-25T09:55:48Z</time>
      </trkpt>
      <trkpt lat="49.27904" lon="-0.35594">
        <ele>42.92</ele>
        <time>2018-08-25T09:56:04Z</time>
      </trkpt>
      <trkpt lat="49.27877" lon="-0.35548">
        <ele>43.4</ele>
        <time>2018-08-25T09:56:12Z</time>
      </trkpt>
      <trkpt lat="49.2787" lon="-0.35531">
        <ele>43.4</ele>
        <time>2018-08-25T09:56:15Z</time>
      </trkpt>
      <trkpt lat="49.27812" lon="-0.35429">
        <ele>43.4</ele>
        <time>2018-08-25T09:56:31Z</time>
      </trkpt>
      <trkpt lat="49.27809" lon="-0.35423">
        <ele>43.4</ele>
        <time>2018-08-25T09:56:32Z</time>
      </trkpt>
      <trkpt lat="49.27793" lon="-0.35403">
        <ele>42.92</ele>
        <time>2018-08-25T09:56:36Z</time>
      </trkpt>
      <trkpt lat="49.27746" lon="-0.35394">
        <ele>43.88</ele>
        <time>2018-08-25T09:56:46Z</time>
      </trkpt>
      <trkpt lat="49.27695" lon="-0.35316">
        <ele>43.4</ele>
        <time>2018-08-25T09:57:00Z</time>
      </trkpt>
      <trkpt lat="49.27675" lon="-0.35296">
        <ele>43.4</ele>
        <time>2018-08-25T09:57:05Z</time>
      </trkpt>
      <trkpt lat="49.27593" lon="-0.35235">
        <ele>47.24</ele>
        <time>2018-08-25T09:57:21Z</time>
      </trkpt>
      <trkpt lat="49.27588" lon="-0.3523">
        <ele>47.24</ele>
        <time>2018-08-25T09:57:22Z</time>
      </trkpt>
      <trkpt lat="49.27419" lon="-0.35136">
        <ele>53.01</ele>
        <time>2018-08-25T09:57:51Z</time>
      </trkpt>
      <trkpt lat="49.27373" lon="-0.3512">
        <ele>56.37</ele>
        <time>2018-08-25T09:57:59Z</time>
      </trkpt>
      <trkpt lat="49.27282" lon="-0.35086">
        <ele>59.26</ele>
        <time>2018-08-25T09:58:15Z</time>
      </trkpt>
      <trkpt lat="49.27185" lon="-0.35042">
        <ele>60.7</ele>
        <time>2018-08-25T09:58:36Z</time>
      </trkpt>
      <trkpt lat="49.27149" lon="-0.35024">
        <ele>61.18</ele>
        <time>2018-08-25T09:58:57Z</time>
      </trkpt>
      <trkpt lat="49.27105" lon="-0.34999">
        <ele>62.14</ele>
        <time>2018-08-25T09:59:13Z</time>
      </trkpt>
      <trkpt lat="49.27022" lon="-0.34937">
        <ele>62.62</ele>
        <time>2018-08-25T09:59:30Z</time>
      </trkpt>
      <trkpt lat="49.26915" lon="-0.34849">
        <ele>60.22</ele>
        <time>2018-08-25T09:59:50Z</time>
      </trkpt>
      <trkpt lat="49.26822" lon="-0.34761">
        <ele>60.22</ele>
        <time>2018-08-25T10:00:09Z</time>
      </trkpt>
      <trkpt lat="49.26713" lon="-0.3465">
        <ele>59.74</ele>
        <time>2018-08-25T10:00:31Z</time>
      </trkpt>
      <trkpt lat="49.266" lon="-0.34565">
        <ele>59.74</ele>
        <time>2018-08-25T10:00:53Z</time>
      </trkpt>
      <trkpt lat="49.26486" lon="-0.34497">
        <ele>57.34</ele>
        <time>2018-08-25T10:01:15Z</time>
      </trkpt>
      <trkpt lat="49.2632" lon="-0.34431">
        <ele>54.45</ele>
        <time>2018-08-25T10:01:42Z</time>
      </trkpt>
      <trkpt lat="49.26258" lon="-0.34401">
        <ele>51.57</ele>
        <time>2018-08-25T10:01:52Z</time>
      </trkpt>
      <trkpt lat="49.2624" lon="-0.34392">
        <ele>49.65</ele>
        <time>2018-08-25T10:01:55Z</time>
      </trkpt>
      <trkpt lat="49.26209" lon="-0.3438">
        <ele>47.72</ele>
        <time>2018-08-25T10:02:00Z</time>
      </trkpt>
      <trkpt lat="49.26184" lon="-0.34376">
        <ele>45.8</ele>
        <time>2018-08-25T10:02:04Z</time>
      </trkpt>
      <trkpt lat="49.26141" lon="-0.3437">
        <ele>42.44</ele>
        <time>2018-08-25T10:02:11Z</time>
      </trkpt>
      <trkpt lat="49.2609" lon="-0.3435">
        <ele>39.07</ele>
        <time>2018-08-25T10:02:20Z</time>
      </trkpt>
      <trkpt lat="49.26084" lon="-0.34346">
        <ele>38.59</ele>
        <time>2018-08-25T10:02:21Z</time>
      </trkpt>
      <trkpt lat="49.2603" lon="-0.34294">
        <ele>38.11</ele>
        <time>2018-08-25T10:02:29Z</time>
      </trkpt>
      <trkpt lat="49.25986" lon="-0.3421">
        <ele>36.19</ele>
        <time>2018-08-25T10:02:43Z</time>
      </trkpt>
      <trkpt lat="49.25976" lon="-0.34194">
        <ele>35.71</ele>
        <time>2018-08-25T10:02:58Z</time>
      </trkpt>
      <trkpt lat="49.25975" lon="-0.34154">
        <ele>36.67</ele>
        <time>2018-08-25T10:03:25Z</time>
      </trkpt>
      <trkpt lat="49.25988" lon="-0.34065">
        <ele>40.51</ele>
        <time>2018-08-25T10:03:38Z</time>
      </trkpt>
      <trkpt lat="49.25996" lon="-0.34024">
        <ele>41.95</ele>
        <time>2018-08-25T10:03:44Z</time>
      </trkpt>
      <trkpt lat="49.26015" lon="-0.33927">
        <ele>44.36</ele>
        <time>2018-08-25T10:03:58Z</time>
      </trkpt>
      <trkpt lat="49.26049" lon="-0.33797">
        <ele>47.72</ele>
        <time>2018-08-25T10:04:16Z</time>
      </trkpt>
      <trkpt lat="49.26072" lon="-0.337">
        <ele>51.09</ele>
        <time>2018-08-25T10:04:30Z</time>
      </trkpt>
      <trkpt lat="49.26101" lon="-0.3356">
        <ele>53.01</ele>
        <time>2018-08-25T10:04:48Z</time>
      </trkpt>
      <trkpt lat="49.26135" lon="-0.33397">
        <ele>54.45</ele>
        <time>2018-08-25T10:05:08Z</time>
      </trkpt>
      <trkpt lat="49.2617" lon="-0.3324">
        <ele>56.37</ele>
        <time>2018-08-25T10:05:27Z</time>
      </trkpt>
      <trkpt lat="49.26216" lon="-0.33072">
        <ele>57.34</ele>
        <time>2018-08-25T10:05:47Z</time>
      </trkpt>
      <trkpt lat="49.26263" lon="-0.32896">
        <ele>58.78</ele>
        <time>2018-08-25T10:06:07Z</time>
      </trkpt>
      <trkpt lat="49.26317" lon="-0.32718">
        <ele>61.66</ele>
        <time>2018-08-25T10:06:28Z</time>
      </trkpt>
      <trkpt lat="49.26373" lon="-0.32554">
        <ele>61.66</ele>
        <time>2018-08-25T10:06:48Z</time>
      </trkpt>
      <trkpt lat="49.26431" lon="-0.32368">
        <ele>63.1</ele>
        <time>2018-08-25T10:07:10Z</time>
      </trkpt>
      <trkpt lat="49.26476" lon="-0.32213">
        <ele>62.14</ele>
        <time>2018-08-25T10:07:30Z</time>
      </trkpt>
      <trkpt lat="49.26528" lon="-0.3202">
        <ele>61.66</ele>
        <time>2018-08-25T10:07:58Z</time>
      </trkpt>
      <trkpt lat="49.26529" lon="-0.32003">
        <ele>62.14</ele>
        <time>2018-08-25T10:08:10Z</time>
      </trkpt>
      <trkpt lat="49.26538" lon="-0.31971">
        <ele>61.66</ele>
        <time>2018-08-25T10:08:21Z</time>
      </trkpt>
      <trkpt lat="49.26592" lon="-0.31857">
        <ele>61.66</ele>
        <time>2018-08-25T10:08:44Z</time>
      </trkpt>
      <trkpt lat="49.26671" lon="-0.3166">
        <ele>58.3</ele>
        <time>2018-08-25T10:09:14Z</time>
      </trkpt>
      <trkpt lat="49.26713" lon="-0.31556">
        <ele>54.93</ele>
        <time>2018-08-25T10:09:25Z</time>
      </trkpt>
      <trkpt lat="49.2674" lon="-0.31488">
        <ele>53.01</ele>
        <time>2018-08-25T10:09:32Z</time>
      </trkpt>
      <trkpt lat="49.26784" lon="-0.31381">
        <ele>49.16</ele>
        <time>2018-08-25T10:09:42Z</time>
      </trkpt>
      <trkpt lat="49.26789" lon="-0.31369">
        <ele>49.16</ele>
        <time>2018-08-25T10:09:43Z</time>
      </trkpt>
      <trkpt lat="49.26808" lon="-0.31323">
        <ele>46.76</ele>
        <time>2018-08-25T10:09:47Z</time>
      </trkpt>
      <trkpt lat="49.26852" lon="-0.31231">
        <ele>43.4</ele>
        <time>2018-08-25T10:09:55Z</time>
      </trkpt>
      <trkpt lat="49.26858" lon="-0.3122">
        <ele>42.92</ele>
        <time>2018-08-25T10:09:56Z</time>
      </trkpt>
      <trkpt lat="49.26911" lon="-0.31147">
        <ele>39.55</ele>
        <time>2018-08-25T10:10:05Z</time>
      </trkpt>
      <trkpt lat="49.26983" lon="-0.3104">
        <ele>35.71</ele>
        <time>2018-08-25T10:10:20Z</time>
      </trkpt>
      <trkpt lat="49.27043" lon="-0.30857">
        <ele>32.82</ele>
        <time>2018-08-25T10:10:38Z</time>
      </trkpt>
      <trkpt lat="49.27066" lon="-0.30771">
        <ele>31.38</ele>
        <time>2018-08-25T10:10:50Z</time>
      </trkpt>
      <trkpt lat="49.27144" lon="-0.30495">
        <ele>28.02</ele>
        <time>2018-08-25T10:11:40Z</time>
      </trkpt>
      <trkpt lat="49.27155" lon="-0.30487">
        <ele>28.02</ele>
        <time>2018-08-25T10:11:56Z</time>
      </trkpt>
      <trkpt lat="49.27197" lon="-0.30395">
        <ele>26.09</ele>
        <time>2018-08-25T10:12:15Z</time>
      </trkpt>
      <trkpt lat="49.27209" lon="-0.30276">
        <ele>25.13</ele>
        <time>2018-08-25T10:12:34Z</time>
      </trkpt>
      <trkpt lat="49.27183" lon="-0.30206">
        <ele>23.21</ele>
        <time>2018-08-25T10:12:53Z</time>
      </trkpt>
      <trkpt lat="49.27182" lon="-0.30203">
        <ele>23.21</ele>
        <time>2018-08-25T10:13:00Z</time>
      </trkpt>
      <trkpt lat="49.27188" lon="-0.30189">
        <ele>22.73</ele>
        <time>2018-08-25T10:13:15Z</time>
      </trkpt>
      <trkpt lat="49.27239" lon="-0.30144">
        <ele>21.77</ele>
        <time>2018-08-25T10:13:33Z</time>
      </trkpt>
      <trkpt lat="49.2729" lon="-0.301">
        <ele>21.77</ele>
        <time>2018-08-25T10:13:49Z</time>
      </trkpt>
      <trkpt lat="49.27339" lon="-0.30038">
        <ele>21.77</ele>
        <time>2018-08-25T10:14:05Z</time>
      </trkpt>
      <trkpt lat="49.27428" lon="-0.29943">
        <ele>19.84</ele>
        <time>2018-08-25T10:14:28Z</time>
      </trkpt>
      <trkpt lat="49.27528" lon="-0.29842">
        <ele>18.88</ele>
        <time>2018-08-25T10:14:51Z</time>
      </trkpt>
      <trkpt lat="49.27626" lon="-0.29778">
        <ele>16.96</ele>
        <time>2018-08-25T10:15:11Z</time>
      </trkpt>
      <trkpt lat="49.27661" lon="-0.29748">
        <ele>15.52</ele>
        <time>2018-08-25T10:15:19Z</time>
      </trkpt>
      <trkpt lat="49.27726" lon="-0.29723">
        <ele>14.56</ele>
        <time>2018-08-25T10:15:34Z</time>
      </trkpt>
      <trkpt lat="49.27741" lon="-0.29716">
        <ele>14.56</ele>
        <time>2018-08-25T10:15:52Z</time>
      </trkpt>
      <trkpt lat="49.27799" lon="-0.29718">
        <ele>15.04</ele>
        <time>2018-08-25T10:16:08Z</time>
      </trkpt>
      <trkpt lat="49.27862" lon="-0.29702">
        <ele>16</ele>
        <time>2018-08-25T10:16:26Z</time>
      </trkpt>
      <trkpt lat="49.27907" lon="-0.29682">
        <ele>16</ele>
        <time>2018-08-25T10:16:39Z</time>
      </trkpt>
      <trkpt lat="49.27991" lon="-0.29615">
        <ele>16.96</ele>
        <time>2018-08-25T10:16:57Z</time>
      </trkpt>
      <trkpt lat="49.2808" lon="-0.29489">
        <ele>15.52</ele>
        <time>2018-08-25T10:17:17Z</time>
      </trkpt>
      <trkpt lat="49.28176" lon="-0.29394">
        <ele>15.52</ele>
        <time>2018-08-25T10:17:36Z</time>
      </trkpt>
      <trkpt lat="49.28274" lon="-0.29292">
        <ele>14.56</ele>
        <time>2018-08-25T10:17:57Z</time>
      </trkpt>
      <trkpt lat="49.28388" lon="-0.29164">
        <ele>14.56</ele>
        <time>2018-08-25T10:18:22Z</time>
      </trkpt>
      <trkpt lat="49.28461" lon="-0.29041">
        <ele>13.12</ele>
        <time>2018-08-25T10:18:42Z</time>
      </trkpt>
      <trkpt lat="49.28534" lon="-0.28938">
        <ele>14.08</ele>
        <time>2018-08-25T10:19:01Z</time>
      </trkpt>
      <trkpt lat="49.28596" lon="-0.28833">
        <ele>12.15</ele>
        <time>2018-08-25T10:19:18Z</time>
      </trkpt>
      <trkpt lat="49.28657" lon="-0.28743">
        <ele>13.6</ele>
        <time>2018-08-25T10:19:35Z</time>
      </trkpt>
      <trkpt lat="49.28727" lon="-0.28648">
        <ele>13.12</ele>
        <time>2018-08-25T10:19:54Z</time>
      </trkpt>
      <trkpt lat="49.28817" lon="-0.28504">
        <ele>12.63</ele>
        <time>2018-08-25T10:20:17Z</time>
      </trkpt>
      <trkpt lat="49.28893" lon="-0.28427">
        <ele>12.15</ele>
        <time>2018-08-25T10:20:34Z</time>
      </trkpt>
      <trkpt lat="49.28976" lon="-0.28324">
        <ele>13.6</ele>
        <time>2018-08-25T10:20:52Z</time>
      </trkpt>
      <trkpt lat="49.28987" lon="-0.28308">
        <ele>13.12</ele>
        <time>2018-08-25T10:20:55Z</time>
      </trkpt>
      <trkpt lat="49.29009" lon="-0.28295">
        <ele>13.6</ele>
        <time>2018-08-25T10:21:00Z</time>
      </trkpt>
      <trkpt lat="49.29088" lon="-0.28262">
        <ele>13.12</ele>
        <time>2018-08-25T10:21:19Z</time>
      </trkpt>
      <trkpt lat="49.29092" lon="-0.28259">
        <ele>13.6</ele>
        <time>2018-08-25T10:21:36Z</time>
      </trkpt>
      <trkpt lat="49.29112" lon="-0.28248">
        <ele>13.6</ele>
        <time>2018-08-25T10:22:15Z</time>
      </trkpt>
      <trkpt lat="49.29129" lon="-0.28248">
        <ele>13.12</ele>
        <time>2018-08-25T10:22:19Z</time>
      </trkpt>
      <trkpt lat="49.29227" lon="-0.2826">
        <ele>14.08</ele>
        <time>2018-08-25T10:22:38Z</time>
      </trkpt>
      <trkpt lat="49.29253" lon="-0.28262">
        <ele>13.12</ele>
        <time>2018-08-25T10:22:44Z</time>
      </trkpt>
      <trkpt lat="49.29327" lon="-0.28278">
        <ele>14.08</ele>
        <time>2018-08-25T10:23:05Z</time>
      </trkpt>
      <trkpt lat="49.29344" lon="-0.28315">
        <ele>14.08</ele>
        <time>2018-08-25T10:23:23Z</time>
      </trkpt>
      <trkpt lat="49.29352" lon="-0.28346">
        <ele>13.6</ele>
        <time>2018-08-25T10:24:04Z</time>
      </trkpt>
      <trkpt lat="49.29358" lon="-0.28368">
        <ele>13.6</ele>
        <time>2018-08-25T10:24:37Z</time>
      </trkpt>
      <trkpt lat="49.29363" lon="-0.28403">
        <ele>13.12</ele>
        <time>2018-08-25T10:24:52Z</time>
      </trkpt>
      <trkpt lat="49.29362" lon="-0.28405">
        <ele>12.63</ele>
        <time>2018-08-25T10:24:57Z</time>
      </trkpt>
      <trkpt lat="49.29326" lon="-0.28418">
        <ele>13.6</ele>
        <time>2018-08-25T10:25:14Z</time>
      </trkpt>
      <trkpt lat="49.29319" lon="-0.28422">
        <ele>13.12</ele>
        <time>2018-08-25T10:25:35Z</time>
      </trkpt>
      <trkpt lat="49.29317" lon="-0.28422">
        <ele>13.12</ele>
        <time>2018-08-25T10:25:39Z</time>
      </trkpt>
      <trkpt lat="49.29311" lon="-0.28415">
        <ele>13.6</ele>
        <time>2018-08-25T10:25:46Z</time>
      </trkpt>
      <trkpt lat="49.29294" lon="-0.28348">
        <ele>13.12</ele>
        <time>2018-08-25T10:26:05Z</time>
      </trkpt>
      <trkpt lat="49.2928" lon="-0.28287">
        <ele>12.15</ele>
        <time>2018-08-25T10:26:34Z</time>
      </trkpt>
      <trkpt lat="49.29265" lon="-0.28269">
        <ele>12.63</ele>
        <time>2018-08-25T10:26:52Z</time>
      </trkpt>
      <trkpt lat="49.29261" lon="-0.28275">
        <ele>13.12</ele>
        <time>2018-08-25T10:26:57Z</time>
      </trkpt>
      <trkpt lat="49.29266" lon="-0.28287">
        <ele>12.63</ele>
        <time>2018-08-25T10:58:10Z</time>
      </trkpt>
      <trkpt lat="49.29277" lon="-0.28286">
        <ele>12.15</ele>
        <time>2018-08-25T10:58:25Z</time>
      </trkpt>
      <trkpt lat="49.2929" lon="-0.28327">
        <ele>12.63</ele>
        <time>2018-08-25T10:58:40Z</time>
      </trkpt>
      <trkpt lat="49.29307" lon="-0.28401">
        <ele>12.63</ele>
        <time>2018-08-25T10:58:58Z</time>
      </trkpt>
      <trkpt lat="49.29331" lon="-0.28415">
        <ele>12.63</ele>
        <time>2018-08-25T10:59:12Z</time>
      </trkpt>
      <trkpt lat="49.29361" lon="-0.28404">
        <ele>12.63</ele>
        <time>2018-08-25T11:00:01Z</time>
      </trkpt>
      <trkpt lat="49.29363" lon="-0.28406">
        <ele>12.15</ele>
        <time>2018-08-25T11:00:05Z</time>
      </trkpt>
      <trkpt lat="49.29366" lon="-0.28416">
        <ele>12.63</ele>
        <time>2018-08-25T11:00:38Z</time>
      </trkpt>
      <trkpt lat="49.29383" lon="-0.28482">
        <ele>12.63</ele>
        <time>2018-08-25T11:00:54Z</time>
      </trkpt>
      <trkpt lat="49.29412" lon="-0.28607">
        <ele>12.63</ele>
        <time>2018-08-25T11:01:15Z</time>
      </trkpt>
      <trkpt lat="49.29448" lon="-0.28755">
        <ele>12.63</ele>
        <time>2018-08-25T11:01:38Z</time>
      </trkpt>
      <trkpt lat="49.2945" lon="-0.28796">
        <ele>12.15</ele>
        <time>2018-08-25T11:01:53Z</time>
      </trkpt>
      <trkpt lat="49.2947" lon="-0.28869">
        <ele>12.15</ele>
        <time>2018-08-25T11:02:11Z</time>
      </trkpt>
      <trkpt lat="49.29472" lon="-0.28935">
        <ele>11.67</ele>
        <time>2018-08-25T11:02:29Z</time>
      </trkpt>
      <trkpt lat="49.29492" lon="-0.29024">
        <ele>11.67</ele>
        <time>2018-08-25T11:02:49Z</time>
      </trkpt>
      <trkpt lat="49.29507" lon="-0.29085">
        <ele>11.67</ele>
        <time>2018-08-25T11:03:06Z</time>
      </trkpt>
      <trkpt lat="49.29535" lon="-0.29183">
        <ele>11.67</ele>
        <time>2018-08-25T11:03:29Z</time>
      </trkpt>
      <trkpt lat="49.29561" lon="-0.29248">
        <ele>12.15</ele>
        <time>2018-08-25T11:03:45Z</time>
      </trkpt>
      <trkpt lat="49.29578" lon="-0.29316">
        <ele>12.15</ele>
        <time>2018-08-25T11:04:05Z</time>
      </trkpt>
      <trkpt lat="49.29595" lon="-0.2938">
        <ele>11.67</ele>
        <time>2018-08-25T11:04:24Z</time>
      </trkpt>
      <trkpt lat="49.29617" lon="-0.29461">
        <ele>12.15</ele>
        <time>2018-08-25T11:04:46Z</time>
      </trkpt>
      <trkpt lat="49.29637" lon="-0.29537">
        <ele>12.63</ele>
        <time>2018-08-25T11:05:08Z</time>
      </trkpt>
      <trkpt lat="49.29661" lon="-0.29622">
        <ele>12.15</ele>
        <time>2018-08-25T11:05:31Z</time>
      </trkpt>
      <trkpt lat="49.29683" lon="-0.297">
        <ele>12.15</ele>
        <time>2018-08-25T11:05:51Z</time>
      </trkpt>
      <trkpt lat="49.29698" lon="-0.29759">
        <ele>12.15</ele>
        <time>2018-08-25T11:06:08Z</time>
      </trkpt>
      <trkpt lat="49.2972" lon="-0.29841">
        <ele>12.63</ele>
        <time>2018-08-25T11:06:29Z</time>
      </trkpt>
      <trkpt lat="49.29742" lon="-0.29922">
        <ele>11.67</ele>
        <time>2018-08-25T11:06:52Z</time>
      </trkpt>
      <trkpt lat="49.29753" lon="-0.29958">
        <ele>11.67</ele>
        <time>2018-08-25T11:07:08Z</time>
      </trkpt>
      <trkpt lat="49.29769" lon="-0.30023">
        <ele>11.67</ele>
        <time>2018-08-25T11:07:28Z</time>
      </trkpt>
      <trkpt lat="49.29789" lon="-0.30095">
        <ele>12.15</ele>
        <time>2018-08-25T11:07:48Z</time>
      </trkpt>
      <trkpt lat="49.29804" lon="-0.30152">
        <ele>11.67</ele>
        <time>2018-08-25T11:08:08Z</time>
      </trkpt>
      <trkpt lat="49.29818" lon="-0.30202">
        <ele>11.19</ele>
        <time>2018-08-25T11:08:28Z</time>
      </trkpt>
      <trkpt lat="49.29824" lon="-0.30221">
        <ele>11.19</ele>
        <time>2018-08-25T11:08:53Z</time>
      </trkpt>
      <trkpt lat="49.29827" lon="-0.30232">
        <ele>11.67</ele>
        <time>2018-08-25T11:09:31Z</time>
      </trkpt>
      <trkpt lat="49.29837" lon="-0.30271">
        <ele>12.63</ele>
        <time>2018-08-25T11:09:46Z</time>
      </trkpt>
      <trkpt lat="49.29861" lon="-0.30347">
        <ele>12.15</ele>
        <time>2018-08-25T11:10:09Z</time>
      </trkpt>
      <trkpt lat="49.29883" lon="-0.30417">
        <ele>12.15</ele>
        <time>2018-08-25T11:10:28Z</time>
      </trkpt>
      <trkpt lat="49.29904" lon="-0.30488">
        <ele>11.67</ele>
        <time>2018-08-25T11:10:49Z</time>
      </trkpt>
      <trkpt lat="49.29923" lon="-0.30548">
        <ele>11.67</ele>
        <time>2018-08-25T11:11:10Z</time>
      </trkpt>
      <trkpt lat="49.29942" lon="-0.30605">
        <ele>11.67</ele>
        <time>2018-08-25T11:11:30Z</time>
      </trkpt>
      <trkpt lat="49.29955" lon="-0.30642">
        <ele>11.19</ele>
        <time>2018-08-25T11:11:50Z</time>
      </trkpt>
      <trkpt lat="49.29973" lon="-0.30699">
        <ele>11.19</ele>
        <time>2018-08-25T11:12:07Z</time>
      </trkpt>
      <trkpt lat="49.29995" lon="-0.30764">
        <ele>11.67</ele>
        <time>2018-08-25T11:12:27Z</time>
      </trkpt>
      <trkpt lat="49.30021" lon="-0.30832">
        <ele>12.63</ele>
        <time>2018-08-25T11:12:48Z</time>
      </trkpt>
      <trkpt lat="49.30049" lon="-0.30901">
        <ele>12.15</ele>
        <time>2018-08-25T11:13:09Z</time>
      </trkpt>
      <trkpt lat="49.30071" lon="-0.30955">
        <ele>12.15</ele>
        <time>2018-08-25T11:13:29Z</time>
      </trkpt>
      <trkpt lat="49.30099" lon="-0.31019">
        <ele>12.15</ele>
        <time>2018-08-25T11:13:50Z</time>
      </trkpt>
      <trkpt lat="49.30122" lon="-0.31074">
        <ele>12.15</ele>
        <time>2018-08-25T11:14:07Z</time>
      </trkpt>
      <trkpt lat="49.30149" lon="-0.31152">
        <ele>11.67</ele>
        <time>2018-08-25T11:14:25Z</time>
      </trkpt>
      <trkpt lat="49.30176" lon="-0.31234">
        <ele>11.19</ele>
        <time>2018-08-25T11:14:50Z</time>
      </trkpt>
      <trkpt lat="49.30198" lon="-0.31286">
        <ele>11.19</ele>
        <time>2018-08-25T11:15:10Z</time>
      </trkpt>
      <trkpt lat="49.3023" lon="-0.31358">
        <ele>11.19</ele>
        <time>2018-08-25T11:15:29Z</time>
      </trkpt>
      <trkpt lat="49.30255" lon="-0.31423">
        <ele>11.19</ele>
        <time>2018-08-25T11:15:51Z</time>
      </trkpt>
      <trkpt lat="49.30283" lon="-0.31482">
        <ele>11.19</ele>
        <time>2018-08-25T11:16:11Z</time>
      </trkpt>
      <trkpt lat="49.30309" lon="-0.31533">
        <ele>11.19</ele>
        <time>2018-08-25T11:16:30Z</time>
      </trkpt>
      <trkpt lat="49.30325" lon="-0.3157">
        <ele>11.67</ele>
        <time>2018-08-25T11:16:48Z</time>
      </trkpt>
      <trkpt lat="49.30327" lon="-0.31578">
        <ele>11.19</ele>
        <time>2018-08-25T11:17:03Z</time>
      </trkpt>
      <trkpt lat="49.3033" lon="-0.31624">
        <ele>12.63</ele>
        <time>2018-08-25T11:17:22Z</time>
      </trkpt>
      <trkpt lat="49.3036" lon="-0.31695">
        <ele>13.12</ele>
        <time>2018-08-25T11:17:39Z</time>
      </trkpt>
      <trkpt lat="49.30385" lon="-0.31753">
        <ele>13.6</ele>
        <time>2018-08-25T11:17:57Z</time>
      </trkpt>
      <trkpt lat="49.30404" lon="-0.31786">
        <ele>14.08</ele>
        <time>2018-08-25T11:18:19Z</time>
      </trkpt>
      <trkpt lat="49.30447" lon="-0.31849">
        <ele>15.04</ele>
        <time>2018-08-25T11:18:36Z</time>
      </trkpt>
      <trkpt lat="49.30489" lon="-0.3192">
        <ele>16</ele>
        <time>2018-08-25T11:18:57Z</time>
      </trkpt>
      <trkpt lat="49.30525" lon="-0.32006">
        <ele>15.04</ele>
        <time>2018-08-25T11:19:18Z</time>
      </trkpt>
      <trkpt lat="49.30544" lon="-0.32055">
        <ele>14.56</ele>
        <time>2018-08-25T11:19:30Z</time>
      </trkpt>
      <trkpt lat="49.30593" lon="-0.32161">
        <ele>14.08</ele>
        <time>2018-08-25T11:19:54Z</time>
      </trkpt>
      <trkpt lat="49.30623" lon="-0.32236">
        <ele>13.12</ele>
        <time>2018-08-25T11:20:18Z</time>
      </trkpt>
      <trkpt lat="49.30628" lon="-0.32258">
        <ele>13.12</ele>
        <time>2018-08-25T11:20:32Z</time>
      </trkpt>
      <trkpt lat="49.30644" lon="-0.3231">
        <ele>12.15</ele>
        <time>2018-08-25T11:21:13Z</time>
      </trkpt>
      <trkpt lat="49.30637" lon="-0.32323">
        <ele>12.63</ele>
        <time>2018-08-25T11:21:19Z</time>
      </trkpt>
      <trkpt lat="49.30594" lon="-0.32355">
        <ele>14.08</ele>
        <time>2018-08-25T11:21:35Z</time>
      </trkpt>
      <trkpt lat="49.30587" lon="-0.32403">
        <ele>14.56</ele>
        <time>2018-08-25T11:21:46Z</time>
      </trkpt>
      <trkpt lat="49.30584" lon="-0.32419">
        <ele>14.08</ele>
        <time>2018-08-25T11:21:50Z</time>
      </trkpt>
      <trkpt lat="49.30584" lon="-0.32432">
        <ele>14.08</ele>
        <time>2018-08-25T11:21:53Z</time>
      </trkpt>
      <trkpt lat="49.30622" lon="-0.32491">
        <ele>15.52</ele>
        <time>2018-08-25T11:22:06Z</time>
      </trkpt>
      <trkpt lat="49.30674" lon="-0.32592">
        <ele>16</ele>
        <time>2018-08-25T11:22:22Z</time>
      </trkpt>
      <trkpt lat="49.30747" lon="-0.32738">
        <ele>17.92</ele>
        <time>2018-08-25T11:22:43Z</time>
      </trkpt>
      <trkpt lat="49.30812" lon="-0.32869">
        <ele>17.92</ele>
        <time>2018-08-25T11:23:02Z</time>
      </trkpt>
      <trkpt lat="49.30878" lon="-0.33001">
        <ele>18.4</ele>
        <time>2018-08-25T11:23:22Z</time>
      </trkpt>
      <trkpt lat="49.30923" lon="-0.33103">
        <ele>19.84</ele>
        <time>2018-08-25T11:23:40Z</time>
      </trkpt>
      <trkpt lat="49.30995" lon="-0.33271">
        <ele>20.32</ele>
        <time>2018-08-25T11:24:00Z</time>
      </trkpt>
      <trkpt lat="49.31086" lon="-0.33491">
        <ele>19.36</ele>
        <time>2018-08-25T11:24:27Z</time>
      </trkpt>
      <trkpt lat="49.31149" lon="-0.33646">
        <ele>19.36</ele>
        <time>2018-08-25T11:24:47Z</time>
      </trkpt>
      <trkpt lat="49.31212" lon="-0.33803">
        <ele>18.88</ele>
        <time>2018-08-25T11:25:08Z</time>
      </trkpt>
      <trkpt lat="49.31274" lon="-0.33953">
        <ele>17.44</ele>
        <time>2018-08-25T11:25:29Z</time>
      </trkpt>
      <trkpt lat="49.31332" lon="-0.34101">
        <ele>16</ele>
        <time>2018-08-25T11:25:50Z</time>
      </trkpt>
      <trkpt lat="49.31388" lon="-0.34236">
        <ele>15.04</ele>
        <time>2018-08-25T11:26:11Z</time>
      </trkpt>
      <trkpt lat="49.31411" lon="-0.34286">
        <ele>15.04</ele>
        <time>2018-08-25T11:26:27Z</time>
      </trkpt>
      <trkpt lat="49.31436" lon="-0.34262">
        <ele>15.04</ele>
        <time>2018-08-25T11:26:44Z</time>
      </trkpt>
      <trkpt lat="49.31474" lon="-0.34229">
        <ele>13.12</ele>
        <time>2018-08-25T11:27:09Z</time>
      </trkpt>
      <trkpt lat="49.31486" lon="-0.34213">
        <ele>11.67</ele>
        <time>2018-08-25T11:27:55Z</time>
      </trkpt>
      <trkpt lat="49.31499" lon="-0.3421">
        <ele>11.19</ele>
        <time>2018-08-25T11:28:08Z</time>
      </trkpt>
      <trkpt lat="49.31504" lon="-0.34216">
        <ele>11.19</ele>
        <time>2018-08-25T11:28:13Z</time>
      </trkpt>
      <trkpt lat="49.31507" lon="-0.34219">
        <ele>11.19</ele>
        <time>2018-08-25T11:28:38Z</time>
      </trkpt>
      <trkpt lat="49.3153" lon="-0.34243">
        <ele>11.67</ele>
        <time>2018-08-25T11:29:05Z</time>
      </trkpt>
      <trkpt lat="49.31578" lon="-0.34315">
        <ele>12.15</ele>
        <time>2018-08-25T11:29:27Z</time>
      </trkpt>
      <trkpt lat="49.31626" lon="-0.34398">
        <ele>12.63</ele>
        <time>2018-08-25T11:29:49Z</time>
      </trkpt>
      <trkpt lat="49.31659" lon="-0.34488">
        <ele>12.63</ele>
        <time>2018-08-25T11:30:11Z</time>
      </trkpt>
      <trkpt lat="49.31689" lon="-0.34573">
        <ele>11.67</ele>
        <time>2018-08-25T11:30:30Z</time>
      </trkpt>
      <trkpt lat="49.31716" lon="-0.34652">
        <ele>12.15</ele>
        <time>2018-08-25T11:30:48Z</time>
      </trkpt>
      <trkpt lat="49.31744" lon="-0.34738">
        <ele>11.67</ele>
        <time>2018-08-25T11:31:07Z</time>
      </trkpt>
      <trkpt lat="49.31766" lon="-0.34807">
        <ele>10.71</ele>
        <time>2018-08-25T11:31:28Z</time>
      </trkpt>
      <trkpt lat="49.31768" lon="-0.34865">
        <ele>12.15</ele>
        <time>2018-08-25T11:31:51Z</time>
      </trkpt>
      <trkpt lat="49.31777" lon="-0.34866">
        <ele>11.67</ele>
        <time>2018-08-25T11:32:03Z</time>
      </trkpt>
      <trkpt lat="49.31783" lon="-0.34861">
        <ele>12.15</ele>
        <time>2018-08-25T11:32:08Z</time>
      </trkpt>
      <trkpt lat="49.31788" lon="-0.34865">
        <ele>11.67</ele>
        <time>2018-08-25T11:32:12Z</time>
      </trkpt>
      <trkpt lat="49.31803" lon="-0.34893">
        <ele>12.15</ele>
        <time>2018-08-25T11:32:33Z</time>
      </trkpt>
      <trkpt lat="49.3183" lon="-0.34957">
        <ele>11.19</ele>
        <time>2018-08-25T11:32:52Z</time>
      </trkpt>
      <trkpt lat="49.3186" lon="-0.35028">
        <ele>11.67</ele>
        <time>2018-08-25T11:33:10Z</time>
      </trkpt>
      <trkpt lat="49.31885" lon="-0.35091">
        <ele>11.19</ele>
        <time>2018-08-25T11:33:25Z</time>
      </trkpt>
      <trkpt lat="49.31925" lon="-0.35188">
        <ele>11.19</ele>
        <time>2018-08-25T11:33:43Z</time>
      </trkpt>
      <trkpt lat="49.31956" lon="-0.35263">
        <ele>12.15</ele>
        <time>2018-08-25T11:33:59Z</time>
      </trkpt>
      <trkpt lat="49.31983" lon="-0.35335">
        <ele>11.67</ele>
        <time>2018-08-25T11:34:21Z</time>
      </trkpt>
      <trkpt lat="49.32019" lon="-0.35421">
        <ele>11.67</ele>
        <time>2018-08-25T11:34:46Z</time>
      </trkpt>
      <trkpt lat="49.32051" lon="-0.35498">
        <ele>12.15</ele>
        <time>2018-08-25T11:35:05Z</time>
      </trkpt>
      <trkpt lat="49.32078" lon="-0.35563">
        <ele>12.15</ele>
        <time>2018-08-25T11:35:25Z</time>
      </trkpt>
      <trkpt lat="49.32108" lon="-0.35648">
        <ele>12.15</ele>
        <time>2018-08-25T11:35:45Z</time>
      </trkpt>
      <trkpt lat="49.32142" lon="-0.3574">
        <ele>12.63</ele>
        <time>2018-08-25T11:36:03Z</time>
      </trkpt>
      <trkpt lat="49.32172" lon="-0.35826">
        <ele>11.67</ele>
        <time>2018-08-25T11:36:22Z</time>
      </trkpt>
      <trkpt lat="49.32168" lon="-0.35873">
        <ele>12.63</ele>
        <time>2018-08-25T11:36:35Z</time>
      </trkpt>
      <trkpt lat="49.32171" lon="-0.35886">
        <ele>12.15</ele>
        <time>2018-08-25T11:36:39Z</time>
      </trkpt>
      <trkpt lat="49.32185" lon="-0.3591">
        <ele>12.15</ele>
        <time>2018-08-25T11:36:52Z</time>
      </trkpt>
      <trkpt lat="49.32206" lon="-0.35947">
        <ele>12.63</ele>
        <time>2018-08-25T11:37:12Z</time>
      </trkpt>
      <trkpt lat="49.3223" lon="-0.36001">
        <ele>13.6</ele>
        <time>2018-08-25T11:37:31Z</time>
      </trkpt>
      <trkpt lat="49.32265" lon="-0.36071">
        <ele>15.52</ele>
        <time>2018-08-25T11:37:49Z</time>
      </trkpt>
      <trkpt lat="49.32297" lon="-0.36141">
        <ele>16.96</ele>
        <time>2018-08-25T11:38:10Z</time>
      </trkpt>
      <trkpt lat="49.3233" lon="-0.36228">
        <ele>16.96</ele>
        <time>2018-08-25T11:38:31Z</time>
      </trkpt>
      <trkpt lat="49.32357" lon="-0.36308">
        <ele>17.92</ele>
        <time>2018-08-25T11:38:53Z</time>
      </trkpt>
      <trkpt lat="49.32363" lon="-0.36368">
        <ele>18.4</ele>
        <time>2018-08-25T11:39:13Z</time>
      </trkpt>
      <trkpt lat="49.32386" lon="-0.36479">
        <ele>18.88</ele>
        <time>2018-08-25T11:39:29Z</time>
      </trkpt>
      <trkpt lat="49.32422" lon="-0.36599">
        <ele>18.88</ele>
        <time>2018-08-25T11:39:50Z</time>
      </trkpt>
      <trkpt lat="49.3246" lon="-0.36734">
        <ele>18.4</ele>
        <time>2018-08-25T11:40:14Z</time>
      </trkpt>
      <trkpt lat="49.32484" lon="-0.36814">
        <ele>16.96</ele>
        <time>2018-08-25T11:40:32Z</time>
      </trkpt>
      <trkpt lat="49.32488" lon="-0.36815">
        <ele>16.48</ele>
        <time>2018-08-25T11:40:35Z</time>
      </trkpt>
      <trkpt lat="49.3251" lon="-0.36802">
        <ele>14.08</ele>
        <time>2018-08-25T11:40:50Z</time>
      </trkpt>
      <trkpt lat="49.32533" lon="-0.36828">
        <ele>14.56</ele>
        <time>2018-08-25T11:41:08Z</time>
      </trkpt>
      <trkpt lat="49.32558" lon="-0.36936">
        <ele>13.6</ele>
        <time>2018-08-25T11:41:36Z</time>
      </trkpt>
      <trkpt lat="49.32581" lon="-0.37017">
        <ele>13.6</ele>
        <time>2018-08-25T11:41:59Z</time>
      </trkpt>
      <trkpt lat="49.3259" lon="-0.37043">
        <ele>13.6</ele>
        <time>2018-08-25T11:42:15Z</time>
      </trkpt>
      <trkpt lat="49.32596" lon="-0.3706">
        <ele>13.6</ele>
        <time>2018-08-25T11:42:36Z</time>
      </trkpt>
      <trkpt lat="49.32616" lon="-0.371">
        <ele>12.15</ele>
        <time>2018-08-25T11:42:53Z</time>
      </trkpt>
      <trkpt lat="49.32638" lon="-0.3718">
        <ele>12.15</ele>
        <time>2018-08-25T11:43:10Z</time>
      </trkpt>
      <trkpt lat="49.32659" lon="-0.37258">
        <ele>12.15</ele>
        <time>2018-08-25T11:43:31Z</time>
      </trkpt>
      <trkpt lat="49.32676" lon="-0.37326">
        <ele>12.15</ele>
        <time>2018-08-25T11:43:50Z</time>
      </trkpt>
      <trkpt lat="49.327" lon="-0.37427">
        <ele>12.15</ele>
        <time>2018-08-25T11:44:10Z</time>
      </trkpt>
      <trkpt lat="49.32719" lon="-0.37504">
        <ele>12.15</ele>
        <time>2018-08-25T11:44:33Z</time>
      </trkpt>
      <trkpt lat="49.32732" lon="-0.37568">
        <ele>11.67</ele>
        <time>2018-08-25T11:44:58Z</time>
      </trkpt>
      <trkpt lat="49.3275" lon="-0.37607">
        <ele>14.08</ele>
        <time>2018-08-25T11:45:13Z</time>
      </trkpt>
      <trkpt lat="49.32784" lon="-0.37714">
        <ele>14.08</ele>
        <time>2018-08-25T11:45:28Z</time>
      </trkpt>
      <trkpt lat="49.32815" lon="-0.37825">
        <ele>14.08</ele>
        <time>2018-08-25T11:45:46Z</time>
      </trkpt>
      <trkpt lat="49.32837" lon="-0.37894">
        <ele>13.6</ele>
        <time>2018-08-25T11:46:02Z</time>
      </trkpt>
      <trkpt lat="49.32849" lon="-0.37944">
        <ele>13.6</ele>
        <time>2018-08-25T11:46:19Z</time>
      </trkpt>
      <trkpt lat="49.32847" lon="-0.37949">
        <ele>13.6</ele>
        <time>2018-08-25T11:46:41Z</time>
      </trkpt>
      <trkpt lat="49.32833" lon="-0.37963">
        <ele>13.6</ele>
        <time>2018-08-25T11:46:48Z</time>
      </trkpt>
      <trkpt lat="49.32797" lon="-0.37981">
        <ele>14.56</ele>
        <time>2018-08-25T11:47:01Z</time>
      </trkpt>
      <trkpt lat="49.32675" lon="-0.3807">
        <ele>16.48</ele>
        <time>2018-08-25T11:47:37Z</time>
      </trkpt>
      <trkpt lat="49.32671" lon="-0.38072">
        <ele>16.48</ele>
        <time>2018-08-25T11:48:08Z</time>
      </trkpt>
    </trkseg>
  </trk>
</gpx>